Terminal Aerodrome Forecast
Issued by NWS

Home | Current Version | Previous Version | Text Only | Print | Product List | Glossary On
Versions: 1 2 3 4 5 6 7 8 9 10 11 12 13 14 15
000
FTUS45 KRIW 200520
TAFBPI
TAF
KBPI 200520Z 2006/2106 VRB06KT P6SM BKN100
     FM201800 22013G20KT P6SM VCTS SCT060CB BKN100
     FM202300 32010KT P6SM VCTS SCT060CB BKN100=

USA.gov is the U.S. government's official web portal to all federal, state and local government web resources and services.